Irving Johnson — WDB3153 — position and weather

sailwx.info

Track history (hours):
 
Tides and Currents Weather Stations Pressure Air Temp Water Temp Dewpoint Dewpoint Depression Visibility Wind Speed Wind Dir Waves Ship Positions

Irving Johnson (United States)

Ship's website: http://www.lamitopsail.org/

Owner: Los Angeles Maritime Institute, San Pedro, CA. More information available from US FCC via Universal Licensing System and Coast Guard Vessel Documentation Center.

Last reported at 2017-Apr-26 19:28 UTC. Time now 2017-Apr-30 05:18 UTC.
Position N 33°44' W 118°16'.

Type: Ship. MMSI: 369725000.

Date/timePositionNaut miles runAvg speedWind from/ knotsBaromVisibWave heightAir tempDewpointWater temp
2017-Apr-26 19:28N 33°44' W 118°16'1 2.5
2017-Apr-26 19:00N 33°43' W 118°16'1 0.1
2017-Apr-25 20:31N 33°44' W 118°17'0 0.0
2017-Apr-25 20:23N 33°44' W 118°17'0 0.3
2017-Apr-25 20:00N 33°44' W 118°16'1 1.2
2017-Apr-25 19:28N 33°43' W 118°16'1 0.0
2017-Apr-24 03:02N 33°44' W 118°17'0 0.0
2017-Apr-24 02:59N 33°44' W 118°17'0 0.0
2017-Apr-24 02:30N 33°44' W 118°17'0 0.0
2017-Apr-24 01:42N 33°44' W 118°17'0 0.0
2017-Apr-24 01:30N 33°44' W 118°17'0 0.0
2017-Apr-24 01:00N 33°44' W 118°17'0 0.0
2017-Apr-24 00:30N 33°44' W 118°17'0 0.0
2017-Apr-24 00:00N 33°44' W 118°17'0 0.0
2017-Apr-23 23:30N 33°44' W 118°17'0 0.0
2017-Apr-23 22:59N 33°44' W 118°17'0 0.0
2017-Apr-23 22:30N 33°44' W 118°17'0 0.0
2017-Apr-23 22:00N 33°44' W 118°17'0 0.0
2017-Apr-23 21:28N 33°44' W 118°17'0 0.0
2017-Apr-23 20:36N 33°44' W 118°17'0 0.0
2017-Apr-23 20:09N 33°44' W 118°17'0 0.0
2017-Apr-23 19:57N 33°44' W 118°17'0 0.0
2017-Apr-23 19:11N 33°44' W 118°17'0 0.0
2017-Apr-22 22:43N 33°44' W 118°17'0 0.8
2017-Apr-22 22:29N 33°44' W 118°16'1 1.8
2017-Apr-22 21:58N 33°43' W 118°16'2 4.1
2017-Apr-22 21:29N 33°41' W 118°15'0 0.0
2017-Apr-22 21:00N 33°41' W 118°15'2 2.8
2017-Apr-22 20:15N 33°43' W 118°16'1 3.5
2017-Apr-22 19:59N 33°44' W 118°17'0 0.1
2017-Apr-22 19:30N 33°44' W 118°17'0 0.0
2017-Apr-22 18:59N 33°44' W 118°17'0 0.0
2017-Apr-21 19:11N 33°44' W 118°17'2 2.9
2017-Apr-21 18:23N 33°42' W 118°15'3 6.3
2017-Apr-21 17:57N 33°40' W 118°17'13 5.6
2017-Apr-21 15:39N 33°30' W 118°27'1 5.8
2017-Apr-21 15:30N 33°29' W 118°28'4 0.1
2017-Apr-20 02:22N 33°28' W 118°23'1 3.3
2017-Apr-20 02:01N 33°29' W 118°22'4 6.1
2017-Apr-20 01:26N 33°32' W 118°19'2 4.0
2017-Apr-20 01:01N 33°33' W 118°19'1 1.9
2017-Apr-20 00:31N 33°32' W 118°19'0 0.7
2017-Apr-19 23:51N 33°32' W 118°18'12 0.5
2017-Apr-18 22:24N 33°44' W 118°17'0 0.0
2017-Apr-18 22:00N 33°44' W 118°17'0 0.0
2017-Apr-18 21:30N 33°44' W 118°17'0 0.0
2017-Apr-18 21:00N 33°44' W 118°17'0 0.0
2017-Apr-18 20:30N 33°44' W 118°17'0 0.0
2017-Apr-18 20:00N 33°44' W 118°17'1 1.4
2017-Apr-18 19:20N 33°45' W 118°16'1 1.9
2017-Apr-18 18:32N 33°43' W 118°16'1 0.0
2017-Apr-17 20:30N 33°44' W 118°17'0 0.4
2017-Apr-17 19:54N 33°44' W 118°16'1 2.3
2017-Apr-17 19:30N 33°43' W 118°16'1 1.1
2017-Apr-17 18:40N 33°43' W 118°15'0 2.7
2017-Apr-17 18:30N 33°43' W 118°15'1 1.6
2017-Apr-17 18:00N 33°43' W 118°16'  
Track history (hours):
 
Tides and Currents Weather Stations Pressure Air Temp Water Temp Dewpoint Dewpoint Depression Visibility Wind Speed Wind Dir Waves Ship Positions

Irving Johnson (United States)

Ship's website: http://www.lamitopsail.org/

Owner: Los Angeles Maritime Institute, San Pedro, CA. More information available from US FCC via Universal Licensing System and Coast Guard Vessel Documentation Center.

Last reported at 2017-Apr-26 19:28 UTC. Time now 2017-Apr-30 05:18 UTC.
Position N 33°44' W 118°16'.

Type: Ship. MMSI: 369725000.

Date/timePositionNaut miles runAvg speedWind from/ knotsBaromVisibWave heightAir tempDewpointWater temp
2017-Apr-26 19:28N 33°44' W 118°16'1 2.5
2017-Apr-26 19:00N 33°43' W 118°16'1 0.1
2017-Apr-25 20:31N 33°44' W 118°17'0 0.0
2017-Apr-25 20:23N 33°44' W 118°17'0 0.3
2017-Apr-25 20:00N 33°44' W 118°16'1 1.2
2017-Apr-25 19:28N 33°43' W 118°16'1 0.0
2017-Apr-24 03:02N 33°44' W 118°17'0 0.0
2017-Apr-24 02:59N 33°44' W 118°17'0 0.0
2017-Apr-24 02:30N 33°44' W 118°17'0 0.0
2017-Apr-24 01:42N 33°44' W 118°17'0 0.0
2017-Apr-24 01:30N 33°44' W 118°17'0 0.0
2017-Apr-24 01:00N 33°44' W 118°17'0 0.0
2017-Apr-24 00:30N 33°44' W 118°17'0 0.0
2017-Apr-24 00:00N 33°44' W 118°17'0 0.0
2017-Apr-23 23:30N 33°44' W 118°17'0 0.0
2017-Apr-23 22:59N 33°44' W 118°17'0 0.0
2017-Apr-23 22:30N 33°44' W 118°17'0 0.0
2017-Apr-23 22:00N 33°44' W 118°17'0 0.0
2017-Apr-23 21:28N 33°44' W 118°17'0 0.0
2017-Apr-23 20:36N 33°44' W 118°17'0 0.0
2017-Apr-23 20:09N 33°44' W 118°17'0 0.0
2017-Apr-23 19:57N 33°44' W 118°17'0 0.0
2017-Apr-23 19:11N 33°44' W 118°17'0 0.0
2017-Apr-22 22:43N 33°44' W 118°17'0 0.8
2017-Apr-22 22:29N 33°44' W 118°16'1 1.8
2017-Apr-22 21:58N 33°43' W 118°16'2 4.1
2017-Apr-22 21:29N 33°41' W 118°15'0 0.0
2017-Apr-22 21:00N 33°41' W 118°15'2 2.8
2017-Apr-22 20:15N 33°43' W 118°16'1 3.5
2017-Apr-22 19:59N 33°44' W 118°17'0 0.1
2017-Apr-22 19:30N 33°44' W 118°17'0 0.0
2017-Apr-22 18:59N 33°44' W 118°17'0 0.0
2017-Apr-21 19:11N 33°44' W 118°17'2 2.9
2017-Apr-21 18:23N 33°42' W 118°15'3 6.3
2017-Apr-21 17:57N 33°40' W 118°17'13 5.6
2017-Apr-21 15:39N 33°30' W 118°27'1 5.8
2017-Apr-21 15:30N 33°29' W 118°28'4 0.1
2017-Apr-20 02:22N 33°28' W 118°23'1 3.3
2017-Apr-20 02:01N 33°29' W 118°22'4 6.1
2017-Apr-20 01:26N 33°32' W 118°19'2 4.0
2017-Apr-20 01:01N 33°33' W 118°19'1 1.9
2017-Apr-20 00:31N 33°32' W 118°19'0 0.7
2017-Apr-19 23:51N 33°32' W 118°18'12 0.5
2017-Apr-18 22:24N 33°44' W 118°17'0 0.0
2017-Apr-18 22:00N 33°44' W 118°17'0 0.0
2017-Apr-18 21:30N 33°44' W 118°17'0 0.0
2017-Apr-18 21:00N 33°44' W 118°17'0 0.0
2017-Apr-18 20:30N 33°44' W 118°17'0 0.0
2017-Apr-18 20:00N 33°44' W 118°17'1 1.4
2017-Apr-18 19:20N 33°45' W 118°16'1 1.9
2017-Apr-18 18:32N 33°43' W 118°16'1 0.0
2017-Apr-17 20:30N 33°44' W 118°17'0 0.4
2017-Apr-17 19:54N 33°44' W 118°16'1 2.3
2017-Apr-17 19:30N 33°43' W 118°16'1 1.1
2017-Apr-17 18:40N 33°43' W 118°15'0 2.7
2017-Apr-17 18:30N 33°43' W 118°15'1 1.6
2017-Apr-17 18:00N 33°43' W 118°16'  

Dump ship's entire track history